Ellis, South Dakota
Current Conditions -  °F | °C
As of 5:56 AM on Friday 24 Oct 2014 (Local Time) from KFSD Reporting Station
Clear Clear  
Wind Chill: 53°   Ceiling: Unl
Heat Index: 53°   Visibility: 9mi
Dew Point: 51°   Wind: 3mph
Humidity: 93%   Direction: 210°SSW
Pressure: 29.84"   Gusts: NA
Location:  43.577°N, 96.8137°W
Report Text: KFSD 241056Z 21003KT 9SM CLR 12/11 A2984 RMK AO2 SLP106 T01170106
Loading
Personal Weather Stations






























Interactive Weather Map
Tropical Storm Tracking
New forecast layout! Learn more

10-Day Weather Forecast

Advertisements
Track Severe Weather on mobile